Observations
| Time | Sensor | AQI | SAQ | Temp °C | Hum % | Pres Pa | CO μg/m³ | H₂S μg/m³ | NO μg/m³ | NO₂ μg/m³ | O₃ μg/m³ | SO₂ μg/m³ | CO₂e PPM | VOC PPM | PM1 μg/m³ | PM2.5 μg/m³ | PM4 μg/m³ | PM10 μg/m³ | TPS µm |
|---|---|---|---|---|---|---|---|---|---|---|---|---|---|---|---|---|---|---|---|
| Tuesday 11 August 2026 | |||||||||||||||||||
| 15:36 | Trim Market St | 3 | 41 | 17 | 67,153 | 0 | 0 | 0 | 16.1 | 54.23 | 6.25 | 1.43 | 4.42 | 4.87 | |||||
| 15:35 | Trim Patrick St | 2 | 37.1 | 22 | 69,727 | 0 | 0 | 0.1 | 14.83 | 90.41 | 21.99 | 3.71 | 9.84 | 10.83 | |||||
| 15:35 | Trim Market St | 3 | 41 | 17 | 67,151 | 0 | 4.67 | 0 | 17.96 | 73.92 | 5.21 | 0.71 | 4.42 | 4.87 | |||||
| 15:34 | Trim Patrick St | 2 | 37 | 23 | 69,725 | 0 | 0 | 0.09 | 13.82 | 81.47 | 20.54 | 2.86 | 8.96 | 9.86 | |||||
| 15:34 | Trim Market St | 3 | 40.9 | 17 | 67,147 | 0 | 9.17 | 0 | 16.44 | 72.32 | 6.48 | 0 | 3.86 | 4.24 | |||||
| 15:33 | Trim Patrick St | 2 | 36.9 | 23 | 69,725 | 0 | 0 | 0.11 | 13.41 | 75.81 | 22.16 | 2 | 8.91 | 9.8 | |||||
| 15:32 | Trim Patrick St | 2 | 36.7 | 24 | 69,721 | 0 | 0 | 0.16 | 14.56 | 126.36 | 23.59 | 2 | 8.08 | 8.89 | |||||
| 15:31 | Trim Market St | 2 | 40.9 | 17 | 67,139 | 0 | 0 | 0.01 | 14.92 | 48.08 | 7.76 | 0.71 | 4.42 | 4.87 | |||||
| 15:31 | Trim Patrick St | 2 | 36.6 | 23 | 69,687 | 0 | 0 | 0.18 | 16.07 | 106.56 | 20.4 | 2 | 8.12 | 8.94 | |||||
| 15:30 | Trim Market St | 2 | 40.8 | 18 | 67,137 | 0 | 14.51 | 0.01 | 16.88 | 95.64 | 6.75 | 0 | 3.85 | 4.23 | |||||
| 15:30 | Trim Patrick St | 2 | 36.4 | 24 | 69,669 | 0 | 0 | 0.17 | 9.66 | 71.79 | 21.48 | 2 | 8.03 | 8.83 | |||||
| 15:29 | Trim Market St | 2 | 40.8 | 17 | 67,128 | 0 | 17.69 | 0 | 18.18 | 74.03 | 6.76 | 0.71 | 3.85 | 4.24 | |||||
| 15:29 | Trim Patrick St | 2 | 36.3 | 23 | 69,679 | 0 | 16.68 | 0.26 | 46.21 | 74.87 | 22.48 | 2 | 8.94 | 9.83 | |||||
| 15:28 | Trim Market St | 2 | 40.7 | 17 | 67,092 | 0 | 15.56 | 0.02 | 26.12 | 78.01 | 5.56 | 0 | 3.86 | 4.24 | |||||
| 15:28 | Trim Patrick St | 2 | 36.1 | 23 | 69,665 | 0 | 0 | 0.26 | 15.05 | 119.43 | 22.05 | 2 | 8.11 | 8.92 | |||||
| 15:27 | Trim Market St | 2 | 40.7 | 17 | 67,130 | 0 | 4.28 | 0.02 | 15.09 | 78.54 | 7.55 | 0 | 3.29 | 3.62 | |||||
| 15:26 | Trim Market St | 2 | 40.6 | 17 | 67,155 | 0 | 21.25 | 0.04 | 19.32 | 89.36 | 6.99 | 0.71 | 4.42 | 4.86 | |||||
| 15:26 | Trim Patrick St | 2 | 35.9 | 23 | 69,656 | 0 | 1.56 | 0.39 | 22.26 | 94.88 | 21.7 | 2 | 8.13 | 8.94 | |||||
| 15:25 | Trim Market St | 2 | 40.6 | 17 | 67,133 | 0 | 10.95 | 0.04 | 16.54 | 82.06 | 6.25 | 0.71 | 4.42 | 4.86 | |||||
| 15:25 | Trim Patrick St | 2 | 35.7 | 25 | 69,665 | 0 | 0 | 0.43 | 14.33 | 94.01 | 21.4 | 2 | 8.02 | 8.82 | |||||